createdAt,value
2022-11-17T00:00:44.165Z,86.42
2022-11-17T00:03:15.364Z,86.37
2022-11-17T00:05:43.399Z,86.58
2022-11-17T00:08:11.212Z,86.54
2022-11-17T00:10:39.231Z,86.42
2022-11-17T00:13:24.839Z,86.64
2022-11-17T00:15:54.240Z,86.61
2022-11-17T00:18:39.568Z,86.51
2022-11-17T00:21:23.904Z,86.35
2022-11-17T00:23:51.865Z,86.37
2022-11-17T00:26:21.321Z,86.39
2022-11-17T00:28:49.395Z,86.22
2022-11-17T00:31:36.310Z,86.41
2022-11-17T00:34:07.043Z,86.08
2022-11-17T00:36:40.201Z,86.15
2022-11-17T00:39:09.407Z,85.52
2022-11-17T00:41:37.303Z,85.79
2022-11-17T00:44:05.499Z,86.21
2022-11-17T00:46:35.068Z,86.49
2022-11-17T00:49:02.912Z,86.41
2022-11-17T00:51:31.024Z,86.59
2022-11-17T00:54:01.213Z,86.63
2022-11-17T00:56:29.217Z,86.15
2022-11-17T00:58:57.255Z,86.93
2022-11-17T01:01:25.557Z,86.68
2022-11-17T01:04:03.125Z,86.56
2022-11-17T01:06:33.386Z,86.91
2022-11-17T01:09:01.818Z,87.17
2022-11-17T01:11:30.235Z,86.87
2022-11-17T01:14:00.214Z,86.52
2022-11-17T01:16:29.643Z,86.51
2022-11-17T01:19:01.167Z,86.69
2022-11-17T01:21:30.075Z,86.92
2022-11-17T01:23:59.653Z,86.87
2022-11-17T01:26:29.084Z,87.06
2022-11-17T01:28:57.253Z,86.98
2022-11-17T01:31:27.439Z,86.86
2022-11-17T01:33:55.355Z,86.86
2022-11-17T01:36:26.516Z,86.44
2022-11-17T01:38:54.505Z,86.40
2022-11-17T01:41:24.775Z,86.95
2022-11-17T01:43:55.265Z,86.77
2022-11-17T01:46:34.578Z,87.07
2022-11-17T01:49:07.778Z,87.96
2022-11-17T01:51:39.797Z,87.53
2022-11-17T01:54:10.186Z,87.69
2022-11-17T01:56:43.385Z,87.69
2022-11-17T01:59:21.242Z,88.03
2022-11-17T02:01:56.573Z,88.10
2022-11-17T02:04:27.256Z,88.40
2022-11-17T02:07:07.559Z,87.47
2022-11-17T02:09:38.635Z,87.45
2022-11-17T02:12:09.692Z,87.50
2022-11-17T02:14:37.815Z,87.58
2022-11-17T02:17:13.139Z,87.85
2022-11-17T02:19:45.122Z,87.42
2022-11-17T02:22:43.880Z,88.08
2022-11-17T02:25:40.607Z,87.64
2022-11-17T02:28:18.802Z,87.02
2022-11-17T02:30:59.861Z,87.00
2022-11-17T02:33:38.260Z,87.31
2022-11-17T02:36:11.941Z,88.11
2022-11-17T02:38:49.883Z,87.71
2022-11-17T02:41:23.994Z,87.86
2022-11-17T02:44:05.801Z,87.22
2022-11-17T02:46:44.848Z,87.67
2022-11-17T02:49:18.225Z,87.66
2022-11-17T02:51:49.312Z,87.84
2022-11-17T02:54:18.693Z,87.59
2022-11-17T02:56:46.614Z,87.51
2022-11-17T02:59:19.926Z,87.23
2022-11-17T03:02:17.820Z,86.00
2022-11-17T03:04:58.112Z,85.77
2022-11-17T03:07:39.138Z,85.99
2022-11-17T03:10:15.289Z,86.64
2022-11-17T03:12:51.099Z,86.63
2022-11-17T03:15:28.393Z,86.79
2022-11-17T03:18:05.337Z,87.03
2022-11-17T03:20:40.433Z,86.91
2022-11-17T03:23:14.966Z,87.19
2022-11-17T03:25:46.788Z,87.43
2022-11-17T03:28:18.138Z,87.65
2022-11-17T03:30:50.550Z,88.02
2022-11-17T03:33:23.808Z,87.86
2022-11-17T03:35:56.088Z,88.13
2022-11-17T03:38:28.521Z,87.53
2022-11-17T03:41:01.221Z,87.74
2022-11-17T03:43:31.673Z,87.91
2022-11-17T03:46:06.290Z,88.11
2022-11-17T03:48:37.960Z,88.16
2022-11-17T03:51:10.311Z,88.14
2022-11-17T03:53:38.664Z,88.58
2022-11-17T03:56:15.280Z,88.86
2022-11-17T03:58:52.735Z,88.84
2022-11-17T04:01:22.824Z,88.83
2022-11-17T04:03:50.798Z,88.90
2022-11-17T04:06:18.699Z,88.80
2022-11-17T04:08:46.619Z,88.76
2022-11-17T04:11:32.028Z,88.76
2022-11-17T04:14:17.872Z,86.91
2022-11-17T04:16:47.255Z,87.46
2022-11-17T04:19:15.143Z,87.69
2022-11-17T04:21:43.025Z,88.22
2022-11-17T04:24:11.043Z,88.37
2022-11-17T04:26:56.472Z,88.82
2022-11-17T04:29:24.299Z,89.44
2022-11-17T04:31:53.507Z,89.21
2022-11-17T04:34:21.357Z,89.66
2022-11-17T04:36:49.515Z,89.87
2022-11-17T04:39:17.608Z,89.68
2022-11-17T04:42:03.554Z,89.94
2022-11-17T04:44:33.194Z,89.90
2022-11-17T04:47:03.844Z,90.32
2022-11-17T04:49:33.384Z,90.02
2022-11-17T04:52:01.762Z,90.38
2022-11-17T04:54:29.800Z,90.30
2022-11-17T04:56:58.550Z,90.61
2022-11-17T04:59:27.661Z,90.85
2022-11-17T05:01:56.460Z,91.12
2022-11-17T05:04:45.407Z,91.28
2022-11-17T05:07:13.281Z,91.53
2022-11-17T05:09:41.348Z,91.82
2022-11-17T05:12:28.933Z,91.60
2022-11-17T05:14:56.740Z,91.45
2022-11-17T05:17:23.562Z,91.38
2022-11-17T05:19:52.961Z,91.80
2022-11-17T05:22:41.670Z,92.01
2022-11-17T05:25:10.096Z,91.78
2022-11-17T05:27:38.972Z,91.02
2022-11-17T05:30:09.111Z,91.11
2022-11-17T05:32:37.019Z,91.09
2022-11-17T05:35:07.229Z,91.45
2022-11-17T05:37:35.016Z,91.30
2022-11-17T05:40:03.112Z,91.30
2022-11-17T05:42:30.952Z,91.89
2022-11-17T05:44:58.761Z,91.12
2022-11-17T05:47:26.725Z,91.07
2022-11-17T05:49:54.571Z,91.17
2022-11-17T05:52:23.803Z,91.22
2022-11-17T05:54:51.691Z,91.14
2022-11-17T05:57:26.290Z,90.92
2022-11-17T05:59:59.659Z,90.79
2022-11-17T06:02:33.433Z,90.59
2022-11-17T06:05:01.254Z,90.44
2022-11-17T06:07:30.577Z,90.29
2022-11-17T06:09:58.569Z,90.13
2022-11-17T06:12:26.374Z,90.07
2022-11-17T06:14:54.945Z,90.20
2022-11-17T06:17:27.795Z,89.85
2022-11-17T06:20:00.796Z,89.27
2022-11-17T06:22:31.227Z,89.30
2022-11-17T06:24:59.894Z,88.94
2022-11-17T06:27:29.240Z,88.68
2022-11-17T06:29:59.245Z,88.92
2022-11-17T06:32:28.859Z,88.39
2022-11-17T06:34:57.599Z,87.86
2022-11-17T06:37:25.851Z,88.06
2022-11-17T06:39:54.990Z,87.70
2022-11-17T06:42:44.088Z,87.60
2022-11-17T06:45:12.942Z,86.85
2022-11-17T06:47:40.926Z,86.71
2022-11-17T06:50:09.629Z,86.67
2022-11-17T06:52:40.119Z,85.88
2022-11-17T06:55:10.985Z,86.18
2022-11-17T06:57:38.956Z,85.62
2022-11-17T07:00:08.087Z,84.94
2022-11-17T07:02:37.243Z,85.18
2022-11-17T07:05:05.602Z,84.70
2022-11-17T07:07:33.591Z,84.71
2022-11-17T07:10:01.590Z,84.84
2022-11-17T07:12:30.878Z,85.03
2022-11-17T07:14:58.838Z,84.84
2022-11-17T07:17:26.914Z,85.05
2022-11-17T07:19:55.085Z,84.28
2022-11-17T07:22:23.010Z,84.24
2022-11-17T07:24:51.138Z,85.19
2022-11-17T07:27:18.953Z,84.70
2022-11-17T07:29:48.746Z,83.84
2022-11-17T07:32:16.803Z,83.91
2022-11-17T07:34:44.920Z,84.07
2022-11-17T07:37:12.758Z,83.67
2022-11-17T07:39:40.722Z,83.40
2022-11-17T07:42:08.800Z,83.28
2022-11-17T07:44:36.708Z,83.08
2022-11-17T07:47:06.101Z,83.64
2022-11-17T07:49:35.509Z,83.29
2022-11-17T07:52:03.897Z,82.78
2022-11-17T07:54:31.750Z,82.49
2022-11-17T07:56:59.623Z,82.51
2022-11-17T07:59:27.519Z,82.26
2022-11-17T08:01:55.359Z,81.65
2022-11-17T08:04:24.660Z,81.15
2022-11-17T08:06:52.692Z,81.52
2022-11-17T08:09:20.711Z,81.28
2022-11-17T08:11:48.696Z,81.31
2022-11-17T08:14:16.609Z,80.02
2022-11-17T08:16:44.455Z,78.45
2022-11-17T08:19:12.440Z,78.17
2022-11-17T08:21:42.243Z,77.98
2022-11-17T08:24:10.206Z,78.17
2022-11-17T08:26:38.379Z,78.83
2022-11-17T08:29:06.238Z,77.63
2022-11-17T08:31:34.276Z,75.69
2022-11-17T08:34:02.239Z,75.97
2022-11-17T08:36:30.183Z,76.60
2022-11-17T08:38:59.471Z,76.65
2022-11-17T08:41:27.399Z,76.71
2022-11-17T08:43:55.341Z,76.12
2022-11-17T08:46:23.354Z,76.92
2022-11-17T08:48:56.868Z,76.75
2022-11-17T08:51:27.204Z,76.67
2022-11-17T08:53:55.141Z,77.09
2022-11-17T08:56:24.360Z,77.30
2022-11-17T08:58:52.237Z,77.81
2022-11-17T09:01:20.233Z,77.48
2022-11-17T09:03:49.474Z,77.66
2022-11-17T09:06:18.383Z,76.89
2022-11-17T09:08:47.421Z,76.87
2022-11-17T09:11:16.563Z,76.56
2022-11-17T09:13:47.288Z,76.55
2022-11-17T09:16:16.889Z,76.74
2022-11-17T09:18:45.084Z,76.57
2022-11-17T09:21:16.452Z,77.11
2022-11-17T09:23:44.536Z,77.03
2022-11-17T09:26:14.732Z,77.50
2022-11-17T09:28:42.663Z,75.61
2022-11-17T09:31:13.995Z,75.40
2022-11-17T09:33:42.391Z,76.24
2022-11-17T09:36:11.471Z,75.84
2022-11-17T09:38:40.181Z,75.85
2022-11-17T09:41:21.197Z,76.67
2022-11-17T09:43:55.569Z,75.50
2022-11-17T09:46:28.752Z,75.00
2022-11-17T09:49:06.285Z,74.66
2022-11-17T09:51:36.102Z,75.29
2022-11-17T09:54:12.392Z,75.67
2022-11-17T09:56:41.986Z,76.22
2022-11-17T09:59:13.622Z,75.85
2022-11-17T10:01:43.675Z,76.19
2022-11-17T10:04:14.317Z,75.04
2022-11-17T10:06:46.034Z,75.16
2022-11-17T10:09:25.390Z,75.26
2022-11-17T10:11:55.696Z,74.60
2022-11-17T10:14:24.242Z,74.02
2022-11-17T10:16:56.113Z,75.09
2022-11-17T10:19:26.117Z,75.55
2022-11-17T10:21:58.976Z,75.13
2022-11-17T10:24:35.291Z,73.62
2022-11-17T10:27:04.457Z,73.28
2022-11-17T10:29:32.839Z,73.07
2022-11-17T10:32:15.412Z,73.19
2022-11-17T10:34:43.326Z,72.07
2022-11-17T10:37:31.179Z,71.75
2022-11-17T10:40:23.592Z,71.90
2022-11-17T10:43:00.049Z,71.44
2022-11-17T10:45:28.277Z,71.77
2022-11-17T10:48:12.104Z,71.66
2022-11-17T10:50:52.633Z,71.73
2022-11-17T10:53:25.355Z,71.92
2022-11-17T10:56:01.253Z,70.51
2022-11-17T10:58:30.951Z,71.04
2022-11-17T11:01:01.008Z,70.69
2022-11-17T11:03:31.512Z,70.18
2022-11-17T11:06:02.545Z,70.81
2022-11-17T11:08:37.416Z,70.58
2022-11-17T11:11:17.317Z,69.74
2022-11-17T11:13:53.320Z,69.98
2022-11-17T11:16:21.527Z,69.76
2022-11-17T11:18:53.561Z,68.75
2022-11-17T11:21:37.942Z,69.71
2022-11-17T11:24:16.973Z,68.01
2022-11-17T11:26:54.774Z,68.22
2022-11-17T11:29:31.351Z,65.80
2022-11-17T11:32:16.694Z,66.44
2022-11-17T11:35:21.900Z,66.07
2022-11-17T11:38:00.329Z,65.13
2022-11-17T11:40:32.815Z,65.86
2022-11-17T11:43:06.282Z,64.86
2022-11-17T11:45:48.344Z,64.62
2022-11-17T11:48:21.494Z,64.27
2022-11-17T11:50:55.492Z,63.90
2022-11-17T11:53:39.575Z,64.58
2022-11-17T11:56:19.897Z,63.83
2022-11-17T11:58:58.514Z,64.15
2022-11-17T12:01:27.557Z,63.59
2022-11-17T12:04:06.029Z,64.09
2022-11-17T12:06:41.891Z,65.45
2022-11-17T12:09:40.070Z,65.82
2022-11-17T12:12:14.317Z,65.67
2022-11-17T12:15:11.734Z,65.71
2022-11-17T12:17:54.897Z,65.21
2022-11-17T12:21:04.365Z,65.59
2022-11-17T12:24:02.055Z,64.58
2022-11-17T12:26:31.674Z,64.38
2022-11-17T12:29:26.646Z,63.28
2022-11-17T12:31:56.976Z,64.31
2022-11-17T12:34:30.678Z,63.50
2022-11-17T12:37:30.042Z,63.08
2022-11-17T12:40:03.149Z,62.59
2022-11-17T12:42:32.349Z,62.91
2022-11-17T12:45:06.765Z,62.92
2022-11-17T12:47:39.715Z,63.22
2022-11-17T12:50:43.349Z,64.17
2022-11-17T12:53:25.887Z,65.10
2022-11-17T12:56:24.597Z,64.96
2022-11-17T12:59:05.200Z,65.47
2022-11-17T13:01:43.446Z,64.71
2022-11-17T13:04:16.773Z,65.38
2022-11-17T13:07:01.209Z,65.01
2022-11-17T13:09:30.827Z,63.92
2022-11-17T13:12:04.184Z,64.02
2022-11-17T13:14:32.835Z,62.90
2022-11-17T13:17:01.717Z,64.16
2022-11-17T13:19:36.012Z,64.22
2022-11-17T13:22:06.791Z,64.14
2022-11-17T13:24:36.776Z,64.88
2022-11-17T13:27:08.461Z,64.57
2022-11-17T13:29:36.759Z,64.39
2022-11-17T13:32:20.268Z,65.66
2022-11-17T13:34:56.600Z,65.68
2022-11-17T13:37:26.418Z,65.67
2022-11-17T13:39:59.194Z,65.79
2022-11-17T13:42:30.400Z,66.65
2022-11-17T13:45:01.325Z,66.42
2022-11-17T13:47:43.257Z,66.67
2022-11-17T13:50:42.620Z,66.04
2022-11-17T13:53:26.395Z,66.23
2022-11-17T13:55:54.764Z,66.23
2022-11-17T13:58:34.304Z,66.21
2022-11-17T14:01:02.378Z,66.59
2022-11-17T14:03:38.293Z,65.94
2022-11-17T14:06:09.524Z,65.32
2022-11-17T14:08:39.283Z,65.57
2022-11-17T14:11:13.796Z,64.79
2022-11-17T14:13:43.560Z,63.37
2022-11-17T14:16:21.434Z,62.82
2022-11-17T14:18:58.196Z,63.18
2022-11-17T14:21:27.891Z,63.30
2022-11-17T14:24:07.936Z,62.42
2022-11-17T14:26:35.835Z,62.45
2022-11-17T14:29:03.850Z,63.08
2022-11-17T14:31:33.375Z,63.74
2022-11-17T14:34:01.554Z,63.51
2022-11-17T14:36:33.757Z,63.91
2022-11-17T14:39:02.958Z,64.27
2022-11-17T14:41:30.819Z,63.51
2022-11-17T14:43:58.613Z,64.18
2022-11-17T14:46:28.076Z,64.91
2022-11-17T14:48:56.509Z,64.77
2022-11-17T14:51:24.831Z,64.86
2022-11-17T14:53:54.228Z,65.15
2022-11-17T14:56:29.538Z,65.21
2022-11-17T14:59:02.289Z,64.89
2022-11-17T15:01:32.530Z,65.58
2022-11-17T15:04:15.739Z,66.09
2022-11-17T15:06:50.720Z,65.47
2022-11-17T15:09:20.705Z,66.71
2022-11-17T15:11:48.889Z,66.27
2022-11-17T15:14:16.938Z,66.78
2022-11-17T15:16:45.038Z,67.20
2022-11-17T15:19:13.356Z,67.94
2022-11-17T15:21:41.546Z,67.81
2022-11-17T15:24:09.648Z,68.45
2022-11-17T15:26:38.977Z,69.21
2022-11-17T15:29:07.074Z,66.88
2022-11-17T15:31:34.972Z,66.82
2022-11-17T15:34:03.246Z,67.10
2022-11-17T15:36:32.083Z,66.99
2022-11-17T15:39:00.082Z,67.70
2022-11-17T15:41:32.592Z,67.75
2022-11-17T15:44:02.605Z,68.03
2022-11-17T15:46:47.385Z,68.36
2022-11-17T15:49:16.582Z,68.31
2022-11-17T15:51:44.690Z,68.35
2022-11-17T15:54:19.617Z,68.52
2022-11-17T15:56:49.016Z,68.21
2022-11-17T15:59:22.110Z,68.48
2022-11-17T16:02:05.800Z,68.82
2022-11-17T16:04:35.023Z,68.73
2022-11-17T16:07:04.534Z,68.35
2022-11-17T16:09:33.114Z,69.15
2022-11-17T16:12:01.217Z,69.48
2022-11-17T16:14:30.627Z,69.54
2022-11-17T16:16:58.627Z,69.61
2022-11-17T16:19:27.749Z,68.74
2022-11-17T16:21:55.854Z,69.19
2022-11-17T16:24:23.990Z,69.05
2022-11-17T16:26:52.165Z,70.01
2022-11-17T16:29:21.964Z,70.33
2022-11-17T16:31:53.148Z,70.38
2022-11-17T16:34:22.117Z,70.57
2022-11-17T16:36:52.325Z,70.89
2022-11-17T16:39:20.961Z,70.71
2022-11-17T16:41:53.924Z,70.95
2022-11-17T16:44:22.011Z,71.47
2022-11-17T16:47:00.064Z,71.32
2022-11-17T16:49:35.115Z,71.90
2022-11-17T16:52:04.389Z,71.98
2022-11-17T16:54:35.298Z,72.38
2022-11-17T16:57:07.740Z,72.09
2022-11-17T16:59:36.745Z,72.01
2022-11-17T17:02:06.217Z,72.10
2022-11-17T17:04:35.776Z,71.80
2022-11-17T17:07:07.432Z,71.93
2022-11-17T17:09:37.394Z,72.13
2022-11-17T17:12:06.063Z,72.18
2022-11-17T17:14:37.545Z,72.29
2022-11-17T17:17:07.163Z,72.53
2022-11-17T17:19:37.224Z,72.03
2022-11-17T17:22:05.207Z,72.24
2022-11-17T17:24:34.990Z,71.85
2022-11-17T17:27:03.079Z,71.36
2022-11-17T17:29:31.272Z,70.72
2022-11-17T17:32:32.070Z,70.86
2022-11-17T17:35:01.533Z,70.30
2022-11-17T17:37:34.038Z,69.82
2022-11-17T17:40:02.840Z,69.46
2022-11-17T17:42:49.002Z,69.30
2022-11-17T17:45:21.614Z,69.42
2022-11-17T17:48:14.906Z,69.07
2022-11-17T17:51:02.488Z,69.48
2022-11-17T17:53:30.452Z,68.81
2022-11-17T17:56:06.474Z,69.54
2022-11-17T17:58:40.318Z,68.90
2022-11-17T18:01:11.011Z,68.61
2022-11-17T18:03:40.191Z,68.98
2022-11-17T18:06:10.028Z,68.84
2022-11-17T18:08:43.073Z,69.14
2022-11-17T18:11:15.430Z,69.48
2022-11-17T18:13:44.782Z,68.86
2022-11-17T18:16:16.577Z,68.50
2022-11-17T18:18:45.618Z,68.84
2022-11-17T18:21:17.466Z,68.95
2022-11-17T18:23:45.582Z,69.62
2022-11-17T18:26:16.871Z,70.46
2022-11-17T18:28:46.525Z,71.10
2022-11-17T18:31:14.513Z,72.38
2022-11-17T18:33:45.553Z,73.35
2022-11-17T18:36:15.951Z,73.95
2022-11-17T18:38:44.049Z,74.36
2022-11-17T18:41:13.927Z,74.17
2022-11-17T18:43:42.915Z,73.48
2022-11-17T18:46:13.248Z,73.03
2022-11-17T18:48:43.073Z,72.48
2022-11-17T18:51:20.821Z,72.26
2022-11-17T18:53:51.622Z,72.54
2022-11-17T18:56:21.684Z,72.48
2022-11-17T18:58:52.514Z,72.42
2022-11-17T19:01:22.854Z,71.88
2022-11-17T19:03:52.791Z,72.51
2022-11-17T19:06:22.008Z,72.31
2022-11-17T19:08:52.071Z,72.61
2022-11-17T19:11:21.567Z,72.80
2022-11-17T19:13:49.587Z,74.08
2022-11-17T19:16:19.488Z,75.17
2022-11-17T19:18:49.746Z,75.95
2022-11-17T19:21:19.410Z,75.94
2022-11-17T19:23:51.923Z,76.79
2022-11-17T19:26:23.406Z,77.02
2022-11-17T19:28:52.039Z,77.65
2022-11-17T19:31:21.777Z,78.60
2022-11-17T19:33:50.493Z,79.02
2022-11-17T19:36:20.369Z,79.46
2022-11-17T19:38:50.495Z,80.67
2022-11-17T19:41:20.593Z,80.81
2022-11-17T19:43:53.189Z,81.05
2022-11-17T19:46:21.850Z,80.90
2022-11-17T19:48:50.015Z,81.87
2022-11-17T19:51:21.069Z,81.92
2022-11-17T19:53:50.759Z,82.59
2022-11-17T19:56:19.464Z,82.95
2022-11-17T19:58:50.013Z,82.52
2022-11-17T20:01:20.674Z,83.55
2022-11-17T20:03:49.609Z,83.49
2022-11-17T20:06:19.944Z,83.97
2022-11-17T20:08:48.654Z,84.38
2022-11-17T20:11:19.165Z,84.07
2022-11-17T20:13:49.944Z,84.84
2022-11-17T20:16:20.384Z,85.13
2022-11-17T20:18:53.802Z,84.72
2022-11-17T20:21:21.888Z,85.25
2022-11-17T20:23:50.710Z,85.59
2022-11-17T20:26:20.712Z,85.38
2022-11-17T20:28:50.411Z,85.78
2022-11-17T20:31:20.413Z,86.13
2022-11-17T20:33:53.591Z,86.23
2022-11-17T20:36:24.321Z,86.22
2022-11-17T20:38:53.065Z,86.45
2022-11-17T20:41:23.423Z,87.16
2022-11-17T20:43:55.585Z,87.19
2022-11-17T20:46:24.766Z,87.79
2022-11-17T20:48:54.356Z,87.52
2022-11-17T20:51:24.360Z,87.27
2022-11-17T20:53:52.941Z,87.82
2022-11-17T20:56:21.230Z,87.58
2022-11-17T20:58:49.611Z,88.16
2022-11-17T21:01:20.399Z,88.39
2022-11-17T21:03:51.307Z,88.63
2022-11-17T21:06:25.206Z,88.92
2022-11-17T21:08:53.504Z,88.62
2022-11-17T21:11:40.410Z,89.45
2022-11-17T21:14:11.858Z,89.16
2022-11-17T21:16:44.397Z,89.09
2022-11-17T21:19:12.957Z,87.44
2022-11-17T21:21:41.192Z,87.69
2022-11-17T21:24:09.829Z,87.52
2022-11-17T21:26:40.746Z,87.29
2022-11-17T21:29:08.682Z,87.08
2022-11-17T21:31:38.041Z,87.71
2022-11-17T21:34:08.607Z,85.97
2022-11-17T21:36:37.154Z,86.58
2022-11-17T21:39:05.452Z,86.91
2022-11-17T21:41:47.893Z,88.32
2022-11-17T21:44:17.724Z,88.27
2022-11-17T21:46:45.740Z,88.96
2022-11-17T21:49:15.597Z,89.46
2022-11-17T21:51:45.597Z,89.88
2022-11-17T21:54:14.062Z,90.08
2022-11-17T21:56:42.159Z,90.55
2022-11-17T21:59:14.032Z,90.05
2022-11-17T22:01:42.268Z,90.08
2022-11-17T22:04:11.895Z,90.09
2022-11-17T22:06:41.257Z,90.08
2022-11-17T22:09:10.060Z,90.46
2022-11-17T22:11:39.074Z,90.66
2022-11-17T22:14:09.868Z,90.67
2022-11-17T22:16:39.679Z,89.44
2022-11-17T22:19:08.590Z,89.11
2022-11-17T22:21:37.570Z,88.33
2022-11-17T22:24:09.613Z,88.44
2022-11-17T22:26:38.602Z,88.92
2022-11-17T22:29:08.059Z,89.02
2022-11-17T22:31:36.066Z,89.68
2022-11-17T22:34:04.295Z,89.85
2022-11-17T22:36:32.367Z,89.84
2022-11-17T22:39:01.148Z,90.44
2022-11-17T22:41:30.561Z,90.87
2022-11-17T22:43:59.166Z,91.29
2022-11-17T22:46:28.745Z,90.75
2022-11-17T22:48:57.428Z,91.03
2022-11-17T22:51:43.578Z,91.72
2022-11-17T22:54:11.906Z,91.28
2022-11-17T22:56:41.561Z,92.14
2022-11-17T22:59:09.961Z,92.03
2022-11-17T23:01:38.192Z,92.55
2022-11-17T23:04:07.358Z,92.19
2022-11-17T23:06:35.668Z,91.63
2022-11-17T23:09:03.879Z,90.75
2022-11-17T23:11:39.072Z,91.24
2022-11-17T23:14:12.298Z,91.69
2022-11-17T23:16:40.960Z,91.73
2022-11-17T23:19:12.358Z,92.47
2022-11-17T23:21:40.723Z,91.38
2022-11-17T23:24:12.727Z,91.17
2022-11-17T23:26:41.146Z,90.88
2022-11-17T23:29:10.644Z,91.11
2022-11-17T23:31:38.829Z,91.24
2022-11-17T23:34:09.106Z,90.67
2022-11-17T23:36:37.058Z,91.62
2022-11-17T23:39:05.360Z,91.48
2022-11-17T23:41:33.475Z,91.83
2022-11-17T23:44:01.678Z,91.61
2022-11-17T23:46:31.062Z,91.23
2022-11-17T23:48:59.164Z,91.63
2022-11-17T23:51:29.769Z,91.78
2022-11-17T23:53:59.609Z,92.21
2022-11-17T23:56:27.893Z,92.03
2022-11-17T23:58:55.996Z,91.69
